createdAt,value
2019-04-21T00:00:00.338Z,24.77
2019-04-21T00:02:35.971Z,25.95
2019-04-21T00:05:25.931Z,23.27
2019-04-21T00:07:52.758Z,27.70
2019-04-21T00:10:30.155Z,23.95
2019-04-21T00:12:52.257Z,28.65
2019-04-21T00:15:19.392Z,26.57
2019-04-21T00:17:43.623Z,24.75
2019-04-21T00:20:26.108Z,24.75
2019-04-21T00:22:58.797Z,26.48
2019-04-21T00:25:32.184Z,31.15
2019-04-21T00:28:09.733Z,24.43
2019-04-21T00:30:42.826Z,26.27
2019-04-21T00:32:59.720Z,24.43
2019-04-21T00:35:25.857Z,28.87
2019-04-21T00:38:13.634Z,26.00
2019-04-21T00:40:47.918Z,28.62
2019-04-21T00:43:07.815Z,25.75
2019-04-21T00:45:42.233Z,26.60
2019-04-21T00:48:23.615Z,27.17
2019-04-21T00:51:14.529Z,26.07
2019-04-21T00:53:35.706Z,28.65
2019-04-21T00:56:03.316Z,27.05
2019-04-21T00:58:33.334Z,27.60
2019-04-21T01:01:02.232Z,26.57
2019-04-21T01:03:32.710Z,27.55
2019-04-21T01:06:05.327Z,30.02
2019-04-21T01:08:31.298Z,31.68
2019-04-21T01:11:09.470Z,29.72
2019-04-21T01:13:41.266Z,27.90
2019-04-21T01:16:07.149Z,34.08
2019-04-21T01:18:38.054Z,34.00
2019-04-21T01:20:49.213Z,27.87
2019-04-21T01:23:19.219Z,26.10
2019-04-21T01:26:00.682Z,29.70
2019-04-21T01:28:35.933Z,30.50
2019-04-21T01:31:09.387Z,29.42
2019-04-21T01:33:44.363Z,27.80
2019-04-21T01:36:16.863Z,28.77
2019-04-21T01:38:48.159Z,29.30
2019-04-21T01:41:20.991Z,30.08
2019-04-21T01:43:45.746Z,30.27
2019-04-21T01:46:15.264Z,31.20
2019-04-21T01:48:45.882Z,30.90
2019-04-21T01:51:18.723Z,31.80
2019-04-21T01:56:24.153Z,29.98
2019-04-21T01:58:48.234Z,32.73
2019-04-21T02:01:33.365Z,33.18
2019-04-21T02:04:02.755Z,34.75
2019-04-21T02:06:36.262Z,29.95
2019-04-21T02:09:05.215Z,31.75
2019-04-21T02:11:35.405Z,30.23
2019-04-21T02:14:09.964Z,28.98
2019-04-21T02:16:40.413Z,35.88
2019-04-21T02:19:04.796Z,31.00
2019-04-21T02:21:35.972Z,33.18
2019-04-21T02:24:35.159Z,34.18
2019-04-21T02:26:41.489Z,34.98
2019-04-21T02:29:15.526Z,30.12
2019-04-21T02:31:57.510Z,32.23
2019-04-21T02:34:23.758Z,33.38
2019-04-21T02:37:11.621Z,31.62
2019-04-21T02:39:35.431Z,35.98
2019-04-21T02:42:11.570Z,32.40
2019-04-21T02:44:37.500Z,34.00
2019-04-21T02:46:55.117Z,32.80
2019-04-21T02:52:15.477Z,34.38
2019-04-21T02:59:59.970Z,38.17
2019-04-21T03:02:34.963Z,33.88
2019-04-21T03:07:50.426Z,37.38
2019-04-21T03:10:20.558Z,38.30
2019-04-21T03:12:48.225Z,38.95
2019-04-21T03:15:23.484Z,36.33
2019-04-21T03:20:23.460Z,37.00
2019-04-21T03:22:58.147Z,38.50
2019-04-21T03:25:33.789Z,38.85
2019-04-21T03:30:53.110Z,42.00
2019-04-21T03:35:57.884Z,37.78
2019-04-21T03:40:28.607Z,40.92
2019-04-21T03:43:10.150Z,39.13
2019-04-21T03:45:40.569Z,38.42
2019-04-21T03:48:13.663Z,39.90
2019-04-21T03:53:09.291Z,43.73
2019-04-21T03:58:24.451Z,42.78
2019-04-21T04:01:04.120Z,40.48
2019-04-21T04:06:27.963Z,45.35
2019-04-21T04:11:33.720Z,40.70
2019-04-21T04:19:06.146Z,41.92
2019-04-21T04:24:13.746Z,44.13
2019-04-21T04:26:31.623Z,43.08
2019-04-21T04:29:08.879Z,43.80
2019-04-21T04:31:39.955Z,43.05
2019-04-21T04:34:09.865Z,44.48
2019-04-21T04:36:47.966Z,44.25
2019-04-21T04:39:25.788Z,43.78
2019-04-21T04:49:39.680Z,42.17
2019-04-21T04:54:40.927Z,44.18
2019-04-21T04:57:08.390Z,42.00
2019-04-21T05:02:14.944Z,43.35
2019-04-21T05:07:06.382Z,44.98
2019-04-21T05:09:39.611Z,46.85
2019-04-21T05:12:05.982Z,45.08
2019-04-21T05:14:40.463Z,46.42
2019-04-21T05:17:19.667Z,47.08
2019-04-21T05:22:17.305Z,46.08
2019-04-21T05:24:35.545Z,44.50
2019-04-21T05:27:05.014Z,43.63
2019-04-21T05:29:49.244Z,49.63
2019-04-21T05:32:17.154Z,45.38
2019-04-21T05:35:00.213Z,45.45
2019-04-21T05:37:29.325Z,45.25
2019-04-21T05:42:28.876Z,38.85
2019-04-21T05:45:25.436Z,40.65
2019-04-21T05:47:52.679Z,42.38
2019-04-21T05:50:11.530Z,37.63
2019-04-21T05:52:45.958Z,41.75
2019-04-21T05:55:33.473Z,41.30
2019-04-21T05:57:57.321Z,40.60
2019-04-21T06:03:06.992Z,39.00
2019-04-21T06:05:43.607Z,36.73
2019-04-21T06:08:09.877Z,36.88
2019-04-21T06:10:41.946Z,34.27
2019-04-21T06:13:12.930Z,38.78
2019-04-21T06:15:44.596Z,37.98
2019-04-21T06:18:11.705Z,40.30
2019-04-21T06:20:40.571Z,37.70
2019-04-21T06:23:12.020Z,36.33
2019-04-21T06:26:25.629Z,41.08
2019-04-21T06:28:17.886Z,45.70
2019-04-21T06:30:57.280Z,39.27
2019-04-21T06:33:21.400Z,41.70
2019-04-21T06:36:20.887Z,39.95
2019-04-21T06:38:54.403Z,43.78
2019-04-21T06:41:13.526Z,41.85
2019-04-21T06:43:48.552Z,39.45
2019-04-21T06:46:21.094Z,39.25
2019-04-21T06:48:49.541Z,44.33
2019-04-21T06:51:22.456Z,43.87
2019-04-21T06:53:55.998Z,39.78
2019-04-21T06:56:21.811Z,41.28
2019-04-21T06:58:51.833Z,42.05
2019-04-21T07:01:25.987Z,38.17
2019-04-21T07:04:01.671Z,38.78
2019-04-21T07:06:32.416Z,37.38
2019-04-21T07:09:02.930Z,40.23
2019-04-21T07:11:28.744Z,36.88
2019-04-21T07:14:14.827Z,38.13
2019-04-21T07:16:31.902Z,40.65
2019-04-21T07:19:05.900Z,41.02
2019-04-21T07:21:34.072Z,37.98
2019-04-21T07:24:05.754Z,40.28
2019-04-21T07:26:36.733Z,42.55
2019-04-21T07:29:12.898Z,40.75
2019-04-21T07:31:40.405Z,38.15
2019-04-21T07:34:14.284Z,40.78
2019-04-21T07:36:48.123Z,40.98
2019-04-21T07:39:06.189Z,39.67
2019-04-21T07:41:42.520Z,39.00
2019-04-21T07:44:04.911Z,38.25
2019-04-21T07:46:36.606Z,39.63
2019-04-21T07:49:12.470Z,40.28
2019-04-21T07:51:57.625Z,37.85
2019-04-21T07:54:32.097Z,38.55
2019-04-21T07:56:44.196Z,38.00
2019-04-21T07:59:37.108Z,37.78
2019-04-21T08:02:02.373Z,39.20
2019-04-21T08:06:56.686Z,42.30
2019-04-21T08:09:37.136Z,39.40
2019-04-21T08:12:00.125Z,36.20
2019-04-21T08:14:39.523Z,36.53
2019-04-21T08:17:03.151Z,36.15
2019-04-21T08:19:35.223Z,37.70
2019-04-21T08:22:11.032Z,41.00
2019-04-21T08:24:46.893Z,39.58
2019-04-21T08:27:10.956Z,44.53
2019-04-21T08:32:14.483Z,43.17
2019-04-21T08:34:55.109Z,39.98
2019-04-21T08:39:58.126Z,39.67
2019-04-21T08:42:18.200Z,39.53
2019-04-21T08:44:52.716Z,40.25
2019-04-21T08:47:20.325Z,45.45
2019-04-21T08:49:47.629Z,41.63
2019-04-21T08:52:39.399Z,42.27
2019-04-21T08:54:55.716Z,39.45
2019-04-21T08:57:34.874Z,39.58
2019-04-21T09:00:13.977Z,39.30
2019-04-21T09:02:40.295Z,41.58
2019-04-21T09:05:11.414Z,45.38
2019-04-21T09:07:49.559Z,41.80
2019-04-21T09:10:09.281Z,42.48
2019-04-21T09:12:41.778Z,40.25
2019-04-21T09:15:14.083Z,42.78
2019-04-21T09:17:41.401Z,45.15
2019-04-21T09:20:26.459Z,38.45
2019-04-21T09:22:50.076Z,38.10
2019-04-21T09:25:30.902Z,37.28
2019-04-21T09:27:53.685Z,35.13
2019-04-21T09:30:06.899Z,36.33
2019-04-21T09:32:38.529Z,33.78
2019-04-21T09:35:12.458Z,37.17
2019-04-21T09:37:47.315Z,34.48
2019-04-21T09:40:13.168Z,34.67
2019-04-21T09:42:50.295Z,33.20
2019-04-21T09:45:14.316Z,34.90
2019-04-21T09:47:52.548Z,32.60
2019-04-21T09:50:15.240Z,31.40
2019-04-21T09:52:49.752Z,29.65
2019-04-21T09:55:20.677Z,32.40
2019-04-21T09:57:53.550Z,35.73
2019-04-21T10:00:24.790Z,31.65
2019-04-21T10:02:58.628Z,36.28
2019-04-21T10:05:22.984Z,32.78
2019-04-21T10:07:55.141Z,33.00
2019-04-21T10:10:25.529Z,32.53
2019-04-21T10:12:56.215Z,30.37
2019-04-21T10:15:27.857Z,31.85
2019-04-21T10:17:58.438Z,31.65
2019-04-21T10:20:28.536Z,31.43
2019-04-21T10:22:57.956Z,34.23
2019-04-21T10:25:28.382Z,31.12
2019-04-21T10:27:58.966Z,31.97
2019-04-21T10:30:28.775Z,31.10
2019-04-21T10:32:58.539Z,33.35
2019-04-21T10:35:28.903Z,32.25
2019-04-21T10:38:10.996Z,35.88
2019-04-21T10:40:32.637Z,32.78
2019-04-21T10:43:01.610Z,31.77
2019-04-21T10:45:32.825Z,33.60
2019-04-21T10:48:03.028Z,32.00
2019-04-21T10:50:34.705Z,32.85
2019-04-21T10:53:13.382Z,34.30
2019-04-21T10:55:57.899Z,29.82
2019-04-21T10:58:20.375Z,32.23
2019-04-21T11:01:08.646Z,35.43
2019-04-21T11:03:42.755Z,35.15
2019-04-21T11:06:14.746Z,33.02
2019-04-21T11:08:48.572Z,34.55
2019-04-21T11:11:16.228Z,34.03
2019-04-21T11:13:46.390Z,34.53
2019-04-21T11:16:17.139Z,32.65
2019-04-21T11:18:48.151Z,38.55
2019-04-21T11:21:18.805Z,39.90
2019-04-21T11:23:48.198Z,37.90
2019-04-21T11:26:19.886Z,36.50
2019-04-21T11:28:56.871Z,35.93
2019-04-21T11:31:27.181Z,34.50
2019-04-21T11:33:57.547Z,35.95
2019-04-21T11:36:27.231Z,34.00
2019-04-21T11:39:16.611Z,35.70
2019-04-21T11:41:34.101Z,35.75
2019-04-21T11:44:05.005Z,35.92
2019-04-21T11:46:34.471Z,36.68
2019-04-21T11:49:04.138Z,38.08
2019-04-21T11:51:33.551Z,35.85
2019-04-21T11:54:04.528Z,37.98
2019-04-21T11:56:34.805Z,38.28
2019-04-21T11:59:05.778Z,36.93
2019-04-21T12:01:35.952Z,37.88
2019-04-21T12:04:07.602Z,38.88
2019-04-21T12:09:10.103Z,35.63
2019-04-21T12:11:41.121Z,36.55
2019-04-21T12:14:10.593Z,37.55
2019-04-21T12:16:41.398Z,36.38
2019-04-21T12:19:10.712Z,38.38
2019-04-21T12:21:54.685Z,37.28
2019-04-21T12:24:13.162Z,35.98
2019-04-21T12:26:42.617Z,35.70
2019-04-21T12:29:11.953Z,37.08
2019-04-21T12:31:59.505Z,39.05
2019-04-21T12:34:30.224Z,36.17
2019-04-21T12:37:01.079Z,39.50
2019-04-21T12:39:32.729Z,39.05
2019-04-21T12:42:02.670Z,38.45
2019-04-21T12:44:32.095Z,39.03
2019-04-21T12:47:01.722Z,40.45
2019-04-21T12:49:31.835Z,37.98
2019-04-21T12:52:01.880Z,41.23
2019-04-21T12:54:33.365Z,39.30
2019-04-21T12:57:03.456Z,39.38
2019-04-21T12:59:34.501Z,39.03
2019-04-21T13:02:04.147Z,39.18
2019-04-21T13:04:33.650Z,37.60
2019-04-21T13:07:05.573Z,37.63
2019-04-21T13:09:36.102Z,37.33
2019-04-21T13:12:06.929Z,35.15
2019-04-21T13:14:37.801Z,33.10
2019-04-21T13:17:09.775Z,33.90
2019-04-21T13:19:39.502Z,30.23
2019-04-21T13:22:09.977Z,31.77
2019-04-21T13:24:39.948Z,31.73
2019-04-21T13:27:12.376Z,36.95
2019-04-21T13:29:41.948Z,34.98
2019-04-21T13:32:12.592Z,32.42
2019-04-21T13:34:42.194Z,35.52
2019-04-21T13:37:12.559Z,29.40
2019-04-21T13:40:11.097Z,30.37
2019-04-21T13:42:34.207Z,34.63
2019-04-21T13:44:57.820Z,29.73
2019-04-21T13:47:28.272Z,28.40
2019-04-21T13:49:59.893Z,26.95
2019-04-21T13:52:29.023Z,32.30
2019-04-21T13:54:58.385Z,29.18
2019-04-21T13:57:28.505Z,31.93
2019-04-21T13:59:59.236Z,29.07
2019-04-21T14:02:30.905Z,30.25
2019-04-21T14:05:01.756Z,32.60
2019-04-21T14:07:32.164Z,28.65
2019-04-21T14:10:06.302Z,30.70
2019-04-21T14:12:32.702Z,29.60
2019-04-21T14:15:02.293Z,31.93
2019-04-21T14:17:34.980Z,29.60
2019-04-21T14:20:09.031Z,32.67
2019-04-21T14:22:38.416Z,31.42
2019-04-21T14:25:08.239Z,31.82
2019-04-21T14:27:38.555Z,30.75
2019-04-21T14:30:10.381Z,32.08
2019-04-21T14:32:40.467Z,29.00
2019-04-21T14:35:10.941Z,30.20
2019-04-21T14:37:42.467Z,30.82
2019-04-21T14:40:17.347Z,35.68
2019-04-21T14:42:44.433Z,23.52
2019-04-21T14:45:16.825Z,32.50
2019-04-21T14:47:48.250Z,27.75
2019-04-21T14:50:36.591Z,28.20
2019-04-21T14:53:11.849Z,29.20
2019-04-21T14:55:45.473Z,59.67
2019-04-21T14:58:15.358Z,27.35
2019-04-21T15:00:55.592Z,34.48
2019-04-21T15:03:25.822Z,28.98
2019-04-21T15:05:55.708Z,25.35
2019-04-21T15:08:25.230Z,24.98
2019-04-21T15:10:54.920Z,27.55
2019-04-21T15:13:25.809Z,27.62
2019-04-21T15:15:56.287Z,27.95
2019-04-21T15:18:26.871Z,22.67
2019-04-21T15:20:57.461Z,26.50
2019-04-21T15:23:28.663Z,25.97
2019-04-21T15:25:58.010Z,25.05
2019-04-21T15:28:31.669Z,24.85
2019-04-21T15:30:58.678Z,26.87
2019-04-21T15:33:29.125Z,26.20
2019-04-21T15:35:58.450Z,24.87
2019-04-21T15:38:27.758Z,21.77
2019-04-21T15:41:02.293Z,27.85
2019-04-21T15:43:28.643Z,25.90
2019-04-21T15:45:58.080Z,26.37
2019-04-21T15:48:28.802Z,25.55
2019-04-21T15:50:58.866Z,24.45
2019-04-21T15:53:31.947Z,25.70
2019-04-21T15:56:04.631Z,31.68
2019-04-21T15:58:52.706Z,26.12
2019-04-21T16:01:36.600Z,26.45
2019-04-21T16:04:07.851Z,28.00
2019-04-21T16:06:37.876Z,28.42
2019-04-21T16:09:16.168Z,25.92
2019-04-21T16:11:40.245Z,25.97
2019-04-21T16:14:10.182Z,24.00
2019-04-21T16:16:41.035Z,22.80
2019-04-21T16:19:12.157Z,22.40
2019-04-21T16:21:45.937Z,23.62
2019-04-21T16:24:14.271Z,21.25
2019-04-21T16:26:44.635Z,23.38
2019-04-21T16:29:15.481Z,26.55
2019-04-21T16:31:47.006Z,22.67
2019-04-21T16:34:17.881Z,24.07
2019-04-21T16:36:49.759Z,22.73
2019-04-21T16:39:19.715Z,23.75
2019-04-21T16:41:50.029Z,22.30
2019-04-21T16:44:20.907Z,22.07
2019-04-21T16:46:51.688Z,21.33
2019-04-21T16:49:22.242Z,22.65
2019-04-21T16:51:53.950Z,21.57
2019-04-21T16:54:26.239Z,19.60
2019-04-21T16:57:03.819Z,23.15
2019-04-21T16:59:35.012Z,22.10
2019-04-21T17:02:04.886Z,24.10
2019-04-21T17:04:34.310Z,22.22
2019-04-21T17:07:05.070Z,23.87
2019-04-21T17:09:34.834Z,20.43
2019-04-21T17:12:09.701Z,21.02
2019-04-21T17:14:53.668Z,18.90
2019-04-21T17:17:32.337Z,17.92
2019-04-21T17:19:45.554Z,18.75
2019-04-21T17:22:13.482Z,18.80
2019-04-21T17:24:44.362Z,20.08
2019-04-21T17:27:15.276Z,17.70
2019-04-21T17:29:46.236Z,21.12
2019-04-21T17:32:16.438Z,18.17
2019-04-21T17:34:45.929Z,14.83
2019-04-21T17:37:15.354Z,17.15
2019-04-21T17:39:45.004Z,20.35
2019-04-21T17:42:26.444Z,16.52
2019-04-21T17:44:45.633Z,17.55
2019-04-21T17:47:25.330Z,16.55
2019-04-21T17:49:50.815Z,18.00
2019-04-21T17:52:38.843Z,16.77
2019-04-21T17:55:16.833Z,16.60
2019-04-21T17:57:57.103Z,19.02
2019-04-21T18:00:49.460Z,20.17
2019-04-21T18:03:01.781Z,18.60
2019-04-21T18:05:31.932Z,17.67
2019-04-21T18:08:00.082Z,19.62
2019-04-21T18:10:30.688Z,17.05
2019-04-21T18:12:57.922Z,18.07
2019-04-21T18:15:37.169Z,17.92
2019-04-21T18:17:50.595Z,20.12
2019-04-21T18:20:25.783Z,19.15
2019-04-21T18:23:07.470Z,19.40
2019-04-21T18:25:48.572Z,19.32
2019-04-21T18:28:08.763Z,20.88
2019-04-21T18:30:48.735Z,18.80
2019-04-21T18:33:26.612Z,18.85
2019-04-21T18:35:56.291Z,22.87
2019-04-21T18:38:51.835Z,19.25
2019-04-21T18:41:01.466Z,17.87
2019-04-21T18:44:08.064Z,18.37
2019-04-21T18:46:27.017Z,20.25
2019-04-21T18:51:34.642Z,21.90
2019-04-21T18:54:24.151Z,22.50
2019-04-21T18:56:29.689Z,21.70
2019-04-21T18:59:00.603Z,22.62
2019-04-21T19:01:34.402Z,25.72
2019-04-21T19:04:05.383Z,24.85
2019-04-21T19:06:46.857Z,25.75
2019-04-21T19:09:26.655Z,25.85
2019-04-21T19:12:00.840Z,27.32
2019-04-21T19:14:31.971Z,24.67
2019-04-21T19:17:29.232Z,25.80
2019-04-21T19:19:44.469Z,26.65
2019-04-21T19:22:06.258Z,28.35
2019-04-21T19:24:52.385Z,24.47
2019-04-21T19:27:12.080Z,27.20
2019-04-21T19:29:45.216Z,28.83
2019-04-21T19:32:14.918Z,33.45
2019-04-21T19:34:29.347Z,30.10
2019-04-21T19:39:39.404Z,28.60
2019-04-21T19:42:08.621Z,28.45
2019-04-21T19:44:47.128Z,31.45
2019-04-21T19:47:26.257Z,29.32
2019-04-21T19:49:55.421Z,31.42
2019-04-21T19:52:11.615Z,30.15
2019-04-21T19:54:39.739Z,32.73
2019-04-21T19:57:07.092Z,28.62
2019-04-21T19:59:44.713Z,28.47
2019-04-21T20:02:09.001Z,31.12
2019-04-21T20:04:47.926Z,31.20
2019-04-21T20:10:02.383Z,29.77
2019-04-21T20:12:36.599Z,31.05
2019-04-21T20:15:08.437Z,33.23
2019-04-21T20:17:33.587Z,34.13
2019-04-21T20:19:46.017Z,32.75
2019-04-21T20:22:16.757Z,35.48
2019-04-21T20:24:53.948Z,33.15
2019-04-21T20:27:31.134Z,33.13
2019-04-21T20:30:08.069Z,33.18
2019-04-21T20:32:38.206Z,33.20
2019-04-21T20:35:34.691Z,32.40
2019-04-21T20:37:37.582Z,32.40
2019-04-21T20:39:59.845Z,35.13
2019-04-21T20:42:40.287Z,34.23
2019-04-21T20:45:28.918Z,32.40
2019-04-21T20:47:36.711Z,31.68
2019-04-21T20:50:12.338Z,35.25
2019-04-21T20:52:47.890Z,36.55
2019-04-21T20:55:10.651Z,36.28
2019-04-21T20:57:49.372Z,35.88
2019-04-21T21:00:21.757Z,39.27
2019-04-21T21:02:52.099Z,36.65
2019-04-21T21:05:24.697Z,38.40
2019-04-21T21:07:57.036Z,39.90
2019-04-21T21:10:26.110Z,40.10
2019-04-21T21:13:08.816Z,43.33
2019-04-21T21:15:29.142Z,36.53
2019-04-21T21:18:13.919Z,37.00
2019-04-21T21:20:35.663Z,40.80
2019-04-21T21:23:05.749Z,37.13
2019-04-21T21:25:44.708Z,37.80
2019-04-21T21:28:04.372Z,37.17
2019-04-21T21:30:41.741Z,37.45
2019-04-21T21:33:15.251Z,35.48
2019-04-21T21:35:37.971Z,36.63
2019-04-21T21:38:13.117Z,40.15
2019-04-21T21:40:45.487Z,37.45
2019-04-21T21:43:09.242Z,37.73
2019-04-21T21:45:41.091Z,37.25
2019-04-21T21:48:21.703Z,37.15
2019-04-21T21:50:45.969Z,42.17
2019-04-21T21:53:13.584Z,36.08
2019-04-21T21:55:38.584Z,41.75
2019-04-21T21:58:09.987Z,39.42
2019-04-21T22:00:43.145Z,40.40
2019-04-21T22:03:19.649Z,36.90
2019-04-21T22:05:50.406Z,38.85
2019-04-21T22:08:16.374Z,42.83
2019-04-21T22:10:45.687Z,40.67
2019-04-21T22:13:19.809Z,35.52
2019-04-21T22:15:48.283Z,39.83
2019-04-21T22:18:36.174Z,36.98
2019-04-21T22:21:04.962Z,35.70
2019-04-21T22:23:34.002Z,38.40
2019-04-21T22:25:51.437Z,35.78
2019-04-21T22:28:22.188Z,37.90
2019-04-21T22:30:53.375Z,35.52
2019-04-21T22:33:23.326Z,34.75
2019-04-21T22:36:02.062Z,36.50
2019-04-21T22:38:42.135Z,38.08
2019-04-21T22:41:10.103Z,36.53
2019-04-21T22:43:34.580Z,36.80
2019-04-21T22:45:59.331Z,37.80
2019-04-21T22:48:29.473Z,35.70
2019-04-21T22:51:00.606Z,35.52
2019-04-21T22:53:36.012Z,39.20
2019-04-21T22:56:11.986Z,34.78
2019-04-21T22:58:37.338Z,36.55
2019-04-21T23:01:05.579Z,34.80
2019-04-21T23:03:35.749Z,37.40
2019-04-21T23:06:13.567Z,64.40
2019-04-21T23:08:40.493Z,35.23
2019-04-21T23:11:11.898Z,36.23
2019-04-21T23:13:38.706Z,38.17
2019-04-21T23:16:09.870Z,39.10
2019-04-21T23:18:54.458Z,36.00
2019-04-21T23:21:25.838Z,36.48
2019-04-21T23:24:01.769Z,38.40
2019-04-21T23:26:33.120Z,36.28
2019-04-21T23:29:10.385Z,38.05
2019-04-21T23:31:34.153Z,36.28
2019-04-21T23:33:48.416Z,44.20
2019-04-21T23:36:24.166Z,40.48
2019-04-21T23:38:51.988Z,40.78
2019-04-21T23:41:21.490Z,38.92
2019-04-21T23:43:59.183Z,38.85
2019-04-21T23:46:26.741Z,39.55
2019-04-21T23:49:07.489Z,38.05
2019-04-21T23:51:36.640Z,45.30
2019-04-21T23:53:55.449Z,40.43
2019-04-21T23:56:30.064Z,39.65
2019-04-21T23:59:02.622Z,39.50
